sensor_id;sensor_type;location;lat;lon;timestamp;P1;durP1;ratioP1;P2;durP2;ratioP2
58528;SDS011;44322;52.968;5.816;2023-04-01T00:00:51;8.95;;;6.30;;
58528;SDS011;44322;52.968;5.816;2023-04-01T00:03:17;7.28;;;5.22;;
58528;SDS011;44322;52.968;5.816;2023-04-01T00:05:44;6.55;;;5.43;;
58528;SDS011;44322;52.968;5.816;2023-04-01T00:08:10;8.50;;;5.93;;
58528;SDS011;44322;52.968;5.816;2023-04-01T00:10:36;7.03;;;5.53;;
58528;SDS011;44322;52.968;5.816;2023-04-01T00:13:02;7.82;;;5.78;;
58528;SDS011;44322;52.968;5.816;2023-04-01T00:15:27;6.60;;;5.57;;
58528;SDS011;44322;52.968;5.816;2023-04-01T00:17:53;6.93;;;5.55;;
58528;SDS011;44322;52.968;5.816;2023-04-01T00:20:19;10.30;;;5.80;;
58528;SDS011;44322;52.968;5.816;2023-04-01T00:22:45;8.07;;;6.10;;
58528;SDS011;44322;52.968;5.816;2023-04-01T00:25:11;8.00;;;6.15;;
58528;SDS011;44322;52.968;5.816;2023-04-01T00:27:36;7.90;;;5.90;;
58528;SDS011;44322;52.968;5.816;2023-04-01T00:30:02;9.52;;;7.13;;
58528;SDS011;44322;52.968;5.816;2023-04-01T00:32:29;9.25;;;6.80;;
58528;SDS011;44322;52.968;5.816;2023-04-01T00:34:55;9.18;;;7.25;;
58528;SDS011;44322;52.968;5.816;2023-04-01T00:37:21;10.23;;;7.07;;
58528;SDS011;44322;52.968;5.816;2023-04-01T00:39:48;9.20;;;6.97;;
58528;SDS011;44322;52.968;5.816;2023-04-01T00:42:13;8.57;;;6.55;;
58528;SDS011;44322;52.968;5.816;2023-04-01T00:44:39;9.32;;;6.93;;
58528;SDS011;44322;52.968;5.816;2023-04-01T00:47:05;8.07;;;6.55;;
58528;SDS011;44322;52.968;5.816;2023-04-01T00:49:32;11.10;;;7.50;;
58528;SDS011;44322;52.968;5.816;2023-04-01T00:52:02;12.60;;;9.00;;
58528;SDS011;44322;52.968;5.816;2023-04-01T00:54:28;13.35;;;10.23;;
58528;SDS011;44322;52.968;5.816;2023-04-01T00:56:56;14.60;;;10.35;;
58528;SDS011;44322;52.968;5.816;2023-04-01T00:59:29;12.40;;;8.85;;
58528;SDS011;44322;52.968;5.816;2023-04-01T01:01:56;12.77;;;7.95;;
58528;SDS011;44322;52.968;5.816;2023-04-01T01:04:29;9.90;;;6.95;;
58528;SDS011;44322;52.968;5.816;2023-04-01T01:06:58;8.32;;;6.38;;
58528;SDS011;44322;52.968;5.816;2023-04-01T01:12:06;9.10;;;6.32;;
58528;SDS011;44322;52.968;5.816;2023-04-01T01:14:38;9.07;;;6.60;;
58528;SDS011;44322;52.968;5.816;2023-04-01T01:36:19;5.30;;;4.40;;
58528;SDS011;44322;52.968;5.816;2023-04-01T01:38:46;6.25;;;4.60;;
58528;SDS011;44322;52.968;5.816;2023-04-01T01:41:13;7.07;;;4.82;;
58528;SDS011;44322;52.968;5.816;2023-04-01T01:43:42;5.60;;;4.35;;
58528;SDS011;44322;52.968;5.816;2023-04-01T01:46:14;6.40;;;4.38;;
58528;SDS011;44322;52.968;5.816;2023-04-01T01:48:43;4.68;;;3.70;;
58528;SDS011;44322;52.968;5.816;2023-04-01T01:51:10;5.32;;;3.83;;
58528;SDS011;44322;52.968;5.816;2023-04-01T01:53:36;4.70;;;3.90;;
58528;SDS011;44322;52.968;5.816;2023-04-01T01:56:02;6.35;;;3.97;;
58528;SDS011;44322;52.968;5.816;2023-04-01T01:58:42;4.82;;;3.60;;
58528;SDS011;44322;52.968;5.816;2023-04-01T02:01:14;5.70;;;4.10;;
58528;SDS011;44322;52.968;5.816;2023-04-01T02:03:42;4.78;;;3.88;;
58528;SDS011;44322;52.968;5.816;2023-04-01T02:06:10;5.78;;;4.07;;
58528;SDS011;44322;52.968;5.816;2023-04-01T02:08:54;5.53;;;4.13;;
58528;SDS011;44322;52.968;5.816;2023-04-01T02:11:24;5.82;;;4.35;;
58528;SDS011;44322;52.968;5.816;2023-04-01T02:14:12;5.63;;;4.05;;
58528;SDS011;44322;52.968;5.816;2023-04-01T02:16:41;5.10;;;4.10;;
58528;SDS011;44322;52.968;5.816;2023-04-01T02:19:10;5.57;;;3.97;;
58528;SDS011;44322;52.968;5.816;2023-04-01T02:21:37;5.95;;;4.43;;
58528;SDS011;44322;52.968;5.816;2023-04-01T02:24:06;5.73;;;4.23;;
58528;SDS011;44322;52.968;5.816;2023-04-01T02:26:34;5.57;;;4.55;;
58528;SDS011;44322;52.968;5.816;2023-04-01T02:29:00;5.55;;;4.20;;
58528;SDS011;44322;52.968;5.816;2023-04-01T02:31:27;5.57;;;3.97;;
58528;SDS011;44322;52.968;5.816;2023-04-01T02:33:52;6.43;;;4.43;;
58528;SDS011;44322;52.968;5.816;2023-04-01T02:36:18;6.00;;;4.80;;
58528;SDS011;44322;52.968;5.816;2023-04-01T02:38:45;6.78;;;4.43;;
58528;SDS011;44322;52.968;5.816;2023-04-01T02:41:11;6.22;;;4.18;;
58528;SDS011;44322;52.968;5.816;2023-04-01T02:43:37;6.32;;;4.18;;
58528;SDS011;44322;52.968;5.816;2023-04-01T02:46:02;8.10;;;5.20;;
58528;SDS011;44322;52.968;5.816;2023-04-01T02:48:28;5.40;;;4.28;;
58528;SDS011;44322;52.968;5.816;2023-04-01T02:50:54;7.22;;;4.80;;
58528;SDS011;44322;52.968;5.816;2023-04-01T02:53:21;6.28;;;4.32;;
58528;SDS011;44322;52.968;5.816;2023-04-01T02:55:46;6.15;;;4.70;;
58528;SDS011;44322;52.968;5.816;2023-04-01T02:58:15;6.80;;;4.72;;
58528;SDS011;44322;52.968;5.816;2023-04-01T03:00:41;6.47;;;4.60;;
58528;SDS011;44322;52.968;5.816;2023-04-01T03:03:08;5.43;;;4.25;;
58528;SDS011;44322;52.968;5.816;2023-04-01T03:05:34;4.75;;;3.55;;
58528;SDS011;44322;52.968;5.816;2023-04-01T03:08:00;4.88;;;3.00;;
58528;SDS011;44322;52.968;5.816;2023-04-01T03:10:26;3.40;;;2.60;;
58528;SDS011;44322;52.968;5.816;2023-04-01T03:12:51;2.38;;;1.70;;
58528;SDS011;44322;52.968;5.816;2023-04-01T03:15:17;1.65;;;1.48;;
58528;SDS011;44322;52.968;5.816;2023-04-01T03:17:43;2.42;;;1.35;;
58528;SDS011;44322;52.968;5.816;2023-04-01T03:20:09;1.58;;;1.05;;
58528;SDS011;44322;52.968;5.816;2023-04-01T03:22:36;0.80;;;0.80;;
58528;SDS011;44322;52.968;5.816;2023-04-01T03:25:03;1.63;;;0.70;;
58528;SDS011;44322;52.968;5.816;2023-04-01T03:27:30;0.38;;;0.30;;
58528;SDS011;44322;52.968;5.816;2023-04-01T03:29:55;1.08;;;0.47;;
58528;SDS011;44322;52.968;5.816;2023-04-01T03:32:21;1.08;;;0.68;;
58528;SDS011;44322;52.968;5.816;2023-04-01T03:34:46;1.48;;;0.82;;
58528;SDS011;44322;52.968;5.816;2023-04-01T03:37:12;1.60;;;1.23;;
58528;SDS011;44322;52.968;5.816;2023-04-01T03:39:38;2.63;;;1.40;;
58528;SDS011;44322;52.968;5.816;2023-04-01T03:42:04;2.70;;;1.50;;
58528;SDS011;44322;52.968;5.816;2023-04-01T03:44:32;2.07;;;1.60;;
58528;SDS011;44322;52.968;5.816;2023-04-01T03:46:58;2.90;;;1.98;;
58528;SDS011;44322;52.968;5.816;2023-04-01T03:49:25;2.50;;;2.17;;
58528;SDS011;44322;52.968;5.816;2023-04-01T03:51:50;4.00;;;2.75;;
58528;SDS011;44322;52.968;5.816;2023-04-01T03:54:17;4.43;;;2.88;;
58528;SDS011;44322;52.968;5.816;2023-04-01T03:56:43;4.82;;;3.42;;
58528;SDS011;44322;52.968;5.816;2023-04-01T03:59:10;4.97;;;3.47;;
58528;SDS011;44322;52.968;5.816;2023-04-01T04:01:35;5.75;;;4.05;;
58528;SDS011;44322;52.968;5.816;2023-04-01T04:04:01;5.15;;;3.90;;
58528;SDS011;44322;52.968;5.816;2023-04-01T04:06:27;7.65;;;5.28;;
58528;SDS011;44322;52.968;5.816;2023-04-01T04:08:53;7.53;;;5.13;;
58528;SDS011;44322;52.968;5.816;2023-04-01T04:11:20;8.80;;;5.43;;
58528;SDS011;44322;52.968;5.816;2023-04-01T04:13:46;8.88;;;5.45;;
58528;SDS011;44322;52.968;5.816;2023-04-01T04:16:16;9.10;;;5.93;;
58528;SDS011;44322;52.968;5.816;2023-04-01T04:18:51;10.88;;;6.07;;
58528;SDS011;44322;52.968;5.816;2023-04-01T04:21:17;8.57;;;5.85;;
58528;SDS011;44322;52.968;5.816;2023-04-01T04:23:43;12.38;;;6.93;;
58528;SDS011;44322;52.968;5.816;2023-04-01T04:26:12;11.27;;;6.78;;
58528;SDS011;44322;52.968;5.816;2023-04-01T04:28:40;11.30;;;6.28;;
58528;SDS011;44322;52.968;5.816;2023-04-01T04:31:05;11.38;;;6.82;;
58528;SDS011;44322;52.968;5.816;2023-04-01T04:33:33;12.85;;;7.25;;
58528;SDS011;44322;52.968;5.816;2023-04-01T04:35:59;11.65;;;7.88;;
58528;SDS011;44322;52.968;5.816;2023-04-01T04:38:25;13.35;;;8.50;;
58528;SDS011;44322;52.968;5.816;2023-04-01T04:40:52;13.60;;;7.93;;
58528;SDS011;44322;52.968;5.816;2023-04-01T04:43:18;13.23;;;8.68;;
58528;SDS011;44322;52.968;5.816;2023-04-01T04:45:44;13.85;;;9.45;;
58528;SDS011;44322;52.968;5.816;2023-04-01T04:48:12;13.10;;;9.02;;
58528;SDS011;44322;52.968;5.816;2023-04-01T04:50:44;14.23;;;9.13;;
58528;SDS011;44322;52.968;5.816;2023-04-01T04:53:11;15.27;;;9.65;;
58528;SDS011;44322;52.968;5.816;2023-04-01T04:55:42;15.70;;;9.50;;
58528;SDS011;44322;52.968;5.816;2023-04-01T04:58:23;12.70;;;8.93;;
58528;SDS011;44322;52.968;5.816;2023-04-01T05:00:49;15.52;;;9.98;;
58528;SDS011;44322;52.968;5.816;2023-04-01T05:03:24;15.57;;;9.70;;
58528;SDS011;44322;52.968;5.816;2023-04-01T05:05:51;16.63;;;10.52;;
58528;SDS011;44322;52.968;5.816;2023-04-01T05:08:18;15.63;;;9.98;;
58528;SDS011;44322;52.968;5.816;2023-04-01T05:10:43;16.77;;;9.60;;
58528;SDS011;44322;52.968;5.816;2023-04-01T05:13:10;14.93;;;10.07;;
58528;SDS011;44322;52.968;5.816;2023-04-01T05:15:36;16.70;;;10.15;;
58528;SDS011;44322;52.968;5.816;2023-04-01T05:18:02;16.13;;;10.23;;
58528;SDS011;44322;52.968;5.816;2023-04-01T05:20:28;13.18;;;9.05;;
58528;SDS011;44322;52.968;5.816;2023-04-01T05:22:57;15.90;;;10.05;;
58528;SDS011;44322;52.968;5.816;2023-04-01T05:25:24;18.33;;;10.18;;
58528;SDS011;44322;52.968;5.816;2023-04-01T05:27:50;15.30;;;9.95;;
58528;SDS011;44322;52.968;5.816;2023-04-01T05:30:16;17.13;;;10.35;;
58528;SDS011;44322;52.968;5.816;2023-04-01T05:33:21;14.82;;;9.68;;
58528;SDS011;44322;52.968;5.816;2023-04-01T05:35:46;16.25;;;10.32;;
58528;SDS011;44322;52.968;5.816;2023-04-01T05:38:12;16.45;;;10.20;;
58528;SDS011;44322;52.968;5.816;2023-04-01T05:40:38;14.43;;;8.95;;
58528;SDS011;44322;52.968;5.816;2023-04-01T05:43:04;14.25;;;9.32;;
58528;SDS011;44322;52.968;5.816;2023-04-01T05:45:29;16.63;;;9.98;;
58528;SDS011;44322;52.968;5.816;2023-04-01T05:47:58;17.65;;;10.57;;
58528;SDS011;44322;52.968;5.816;2023-04-01T05:50:26;17.92;;;10.50;;
58528;SDS011;44322;52.968;5.816;2023-04-01T05:52:51;17.10;;;10.85;;
58528;SDS011;44322;52.968;5.816;2023-04-01T05:55:18;18.17;;;11.40;;
58528;SDS011;44322;52.968;5.816;2023-04-01T05:57:45;19.50;;;11.85;;
58528;SDS011;44322;52.968;5.816;2023-04-01T06:00:11;19.15;;;11.40;;
58528;SDS011;44322;52.968;5.816;2023-04-01T06:02:38;19.65;;;12.10;;
58528;SDS011;44322;52.968;5.816;2023-04-01T06:05:19;20.13;;;12.60;;
58528;SDS011;44322;52.968;5.816;2023-04-01T06:07:55;21.50;;;12.98;;
58528;SDS011;44322;52.968;5.816;2023-04-01T06:10:29;21.42;;;11.40;;
58528;SDS011;44322;52.968;5.816;2023-04-01T06:13:06;19.08;;;12.23;;
58528;SDS011;44322;52.968;5.816;2023-04-01T06:21:47;19.40;;;11.48;;
58528;SDS011;44322;52.968;5.816;2023-04-01T06:42:24;21.05;;;12.63;;
58528;SDS011;44322;52.968;5.816;2023-04-01T06:52:13;19.75;;;12.95;;
58528;SDS011;44322;52.968;5.816;2023-04-01T06:55:00;20.75;;;12.38;;
58528;SDS011;44322;52.968;5.816;2023-04-01T06:57:58;21.55;;;12.98;;
58528;SDS011;44322;52.968;5.816;2023-04-01T07:00:31;21.13;;;12.70;;
58528;SDS011;44322;52.968;5.816;2023-04-01T07:03:13;21.77;;;13.00;;
58528;SDS011;44322;52.968;5.816;2023-04-01T07:06:11;21.15;;;12.70;;
58528;SDS011;44322;52.968;5.816;2023-04-01T07:08:49;20.05;;;12.98;;
58528;SDS011;44322;52.968;5.816;2023-04-01T07:11:26;20.83;;;12.77;;
58528;SDS011;44322;52.968;5.816;2023-04-01T07:14:34;21.10;;;12.43;;
58528;SDS011;44322;52.968;5.816;2023-04-01T07:20:43;20.20;;;12.13;;
58528;SDS011;44322;52.968;5.816;2023-04-01T07:22:48;17.75;;;10.82;;
58528;SDS011;44322;52.968;5.816;2023-04-01T07:25:22;18.08;;;11.05;;
58528;SDS011;44322;52.968;5.816;2023-04-01T07:28:06;18.23;;;10.60;;
58528;SDS011;44322;52.968;5.816;2023-04-01T07:33:36;17.65;;;10.40;;
58528;SDS011;44322;52.968;5.816;2023-04-01T07:36:22;17.25;;;9.73;;
58528;SDS011;44322;52.968;5.816;2023-04-01T07:45:18;12.45;;;7.85;;
58528;SDS011;44322;52.968;5.816;2023-04-01T07:53:18;11.93;;;7.38;;
58528;SDS011;44322;52.968;5.816;2023-04-01T07:56:51;13.55;;;7.88;;
58528;SDS011;44322;52.968;5.816;2023-04-01T08:04:32;13.23;;;7.93;;
58528;SDS011;44322;52.968;5.816;2023-04-01T08:11:10;9.70;;;6.22;;
58528;SDS011;44322;52.968;5.816;2023-04-01T08:14:29;11.27;;;6.57;;
58528;SDS011;44322;52.968;5.816;2023-04-01T08:17:28;11.35;;;7.13;;
58528;SDS011;44322;52.968;5.816;2023-04-01T08:20:28;12.25;;;7.40;;
58528;SDS011;44322;52.968;5.816;2023-04-01T08:23:03;14.27;;;8.95;;
58528;SDS011;44322;52.968;5.816;2023-04-01T08:25:54;15.88;;;10.15;;
58528;SDS011;44322;52.968;5.816;2023-04-01T08:28:36;14.60;;;9.32;;
58528;SDS011;44322;52.968;5.816;2023-04-01T08:31:09;16.52;;;9.68;;
58528;SDS011;44322;52.968;5.816;2023-04-01T08:33:39;15.15;;;9.65;;
58528;SDS011;44322;52.968;5.816;2023-04-01T08:38:54;20.52;;;12.18;;
58528;SDS011;44322;52.968;5.816;2023-04-01T08:52:58;23.15;;;13.98;;
58528;SDS011;44322;52.968;5.816;2023-04-01T09:03:57;20.73;;;12.45;;
58528;SDS011;44322;52.968;5.816;2023-04-01T09:06:36;21.70;;;13.65;;
58528;SDS011;44322;52.968;5.816;2023-04-01T09:20:51;19.48;;;12.25;;
58528;SDS011;44322;52.968;5.816;2023-04-01T09:29:05;18.17;;;11.38;;
58528;SDS011;44322;52.968;5.816;2023-04-01T09:53:47;17.40;;;10.48;;
58528;SDS011;44322;52.968;5.816;2023-04-01T09:59:31;17.90;;;11.55;;
58528;SDS011;44322;52.968;5.816;2023-04-01T10:10:46;15.18;;;9.95;;
58528;SDS011;44322;52.968;5.816;2023-04-01T10:16:39;12.32;;;7.53;;
58528;SDS011;44322;52.968;5.816;2023-04-01T10:36:58;12.18;;;9.38;;
58528;SDS011;44322;52.968;5.816;2023-04-01T10:46:05;10.93;;;8.95;;
58528;SDS011;44322;52.968;5.816;2023-04-01T10:59:43;10.90;;;8.25;;
58528;SDS011;44322;52.968;5.816;2023-04-01T11:02:05;11.07;;;8.52;;
58528;SDS011;44322;52.968;5.816;2023-04-01T11:14:12;9.23;;;6.15;;
58528;SDS011;44322;52.968;5.816;2023-04-01T11:25:25;7.07;;;5.55;;
58528;SDS011;44322;52.968;5.816;2023-04-01T11:37:26;8.23;;;5.72;;
58528;SDS011;44322;52.968;5.816;2023-04-01T11:46:47;9.05;;;6.22;;
58528;SDS011;44322;52.968;5.816;2023-04-01T11:54:44;7.97;;;6.05;;
58528;SDS011;44322;52.968;5.816;2023-04-01T12:11:14;6.85;;;5.50;;
58528;SDS011;44322;52.968;5.816;2023-04-01T12:16:21;5.82;;;4.72;;
58528;SDS011;44322;52.968;5.816;2023-04-01T12:19:14;6.28;;;4.93;;
58528;SDS011;44322;52.968;5.816;2023-04-01T12:22:06;5.85;;;4.68;;
58528;SDS011;44322;52.968;5.816;2023-04-01T12:32:44;4.72;;;3.92;;
58528;SDS011;44322;52.968;5.816;2023-04-01T12:46:23;3.83;;;3.30;;
58528;SDS011;44322;52.968;5.816;2023-04-01T12:59:18;5.07;;;3.83;;
58528;SDS011;44322;52.968;5.816;2023-04-01T13:07:13;5.40;;;3.50;;
58528;SDS011;44322;52.968;5.816;2023-04-01T13:17:50;3.80;;;3.40;;
58528;SDS011;44322;52.968;5.816;2023-04-01T13:28:08;4.25;;;3.50;;
58528;SDS011;44322;52.968;5.816;2023-04-01T13:30:48;4.03;;;3.65;;
58528;SDS011;44322;52.968;5.816;2023-04-01T13:44:33;4.75;;;3.63;;
58528;SDS011;44322;52.968;5.816;2023-04-01T14:09:36;5.60;;;4.07;;
58528;SDS011;44322;52.968;5.816;2023-04-01T14:20:27;10.15;;;4.10;;
58528;SDS011;44322;52.968;5.816;2023-04-01T14:26:03;4.35;;;3.40;;
58528;SDS011;44322;52.968;5.816;2023-04-01T14:34:00;4.13;;;3.70;;
58528;SDS011;44322;52.968;5.816;2023-04-01T14:36:43;5.35;;;4.20;;
58528;SDS011;44322;52.968;5.816;2023-04-01T14:45:15;3.93;;;3.60;;
58528;SDS011;44322;52.968;5.816;2023-04-01T14:47:47;4.07;;;3.63;;
58528;SDS011;44322;52.968;5.816;2023-04-01T14:50:17;4.20;;;3.40;;
58528;SDS011;44322;52.968;5.816;2023-04-01T14:52:54;3.90;;;3.42;;
58528;SDS011;44322;52.968;5.816;2023-04-01T14:55:48;4.07;;;3.65;;
58528;SDS011;44322;52.968;5.816;2023-04-01T15:03:32;4.00;;;3.50;;
58528;SDS011;44322;52.968;5.816;2023-04-01T15:09:41;3.55;;;2.90;;
58528;SDS011;44322;52.968;5.816;2023-04-01T15:23:31;3.00;;;2.70;;
58528;SDS011;44322;52.968;5.816;2023-04-01T15:31:39;3.17;;;2.80;;
58528;SDS011;44322;52.968;5.816;2023-04-01T15:37:28;3.85;;;2.70;;
58528;SDS011;44322;52.968;5.816;2023-04-01T15:40:53;3.10;;;2.60;;
58528;SDS011;44322;52.968;5.816;2023-04-01T15:43:17;3.70;;;2.80;;
58528;SDS011;44322;52.968;5.816;2023-04-01T15:49:04;4.53;;;2.45;;
58528;SDS011;44322;52.968;5.816;2023-04-01T15:52:05;2.72;;;2.40;;
58528;SDS011;44322;52.968;5.816;2023-04-01T15:57:34;3.00;;;2.72;;
58528;SDS011;44322;52.968;5.816;2023-04-01T16:00:09;3.13;;;2.72;;
58528;SDS011;44322;52.968;5.816;2023-04-01T16:08:36;4.00;;;3.00;;
58528;SDS011;44322;52.968;5.816;2023-04-01T16:14:14;3.38;;;2.58;;
58528;SDS011;44322;52.968;5.816;2023-04-01T16:16:53;3.50;;;2.83;;
58528;SDS011;44322;52.968;5.816;2023-04-01T16:19:48;4.87;;;3.03;;
58528;SDS011;44322;52.968;5.816;2023-04-01T16:31:26;5.90;;;3.55;;
58528;SDS011;44322;52.968;5.816;2023-04-01T16:39:01;5.63;;;3.90;;
58528;SDS011;44322;52.968;5.816;2023-04-01T16:41:47;4.85;;;3.90;;
58528;SDS011;44322;52.968;5.816;2023-04-01T16:44:23;8.43;;;4.45;;
58528;SDS011;44322;52.968;5.816;2023-04-01T16:46:51;6.30;;;4.85;;
58528;SDS011;44322;52.968;5.816;2023-04-01T16:54:35;8.30;;;4.88;;
58528;SDS011;44322;52.968;5.816;2023-04-01T17:02:14;6.75;;;4.95;;
58528;SDS011;44322;52.968;5.816;2023-04-01T17:07:46;10.15;;;6.05;;
58528;SDS011;44322;52.968;5.816;2023-04-01T17:13:20;12.23;;;6.60;;
58528;SDS011;44322;52.968;5.816;2023-04-01T17:21:25;9.63;;;6.07;;
58528;SDS011;44322;52.968;5.816;2023-04-01T17:24:15;9.73;;;5.60;;
58528;SDS011;44322;52.968;5.816;2023-04-01T17:29:46;8.15;;;6.10;;
58528;SDS011;44322;52.968;5.816;2023-04-01T17:35:20;9.93;;;6.43;;
58528;SDS011;44322;52.968;5.816;2023-04-01T17:43:19;10.43;;;6.28;;
58528;SDS011;44322;52.968;5.816;2023-04-01T17:45:54;13.48;;;6.78;;
58528;SDS011;44322;52.968;5.816;2023-04-01T17:48:29;11.55;;;6.97;;
58528;SDS011;44322;52.968;5.816;2023-04-01T17:51:12;11.65;;;6.70;;
58528;SDS011;44322;52.968;5.816;2023-04-01T17:59:37;9.85;;;6.78;;
58528;SDS011;44322;52.968;5.816;2023-04-01T18:05:26;13.25;;;7.82;;
58528;SDS011;44322;52.968;5.816;2023-04-01T18:13:54;14.98;;;8.00;;
58528;SDS011;44322;52.968;5.816;2023-04-01T18:16:49;11.10;;;7.70;;
58528;SDS011;44322;52.968;5.816;2023-04-01T18:22:08;12.10;;;8.18;;
58528;SDS011;44322;52.968;5.816;2023-04-01T18:30:11;10.80;;;7.00;;
58528;SDS011;44322;52.968;5.816;2023-04-01T18:43:39;9.52;;;7.10;;
58528;SDS011;44322;52.968;5.816;2023-04-01T18:46:17;12.63;;;7.95;;
58528;SDS011;44322;52.968;5.816;2023-04-01T18:51:53;11.13;;;6.57;;
58528;SDS011;44322;52.968;5.816;2023-04-01T18:54:31;11.82;;;8.15;;
58528;SDS011;44322;52.968;5.816;2023-04-01T18:57:10;11.38;;;6.90;;
58528;SDS011;44322;52.968;5.816;2023-04-01T18:59:39;12.15;;;7.45;;
58528;SDS011;44322;52.968;5.816;2023-04-01T19:05:02;14.68;;;8.20;;
58528;SDS011;44322;52.968;5.816;2023-04-01T19:10:12;13.27;;;8.13;;
58528;SDS011;44322;52.968;5.816;2023-04-01T19:13:04;13.20;;;8.05;;
58528;SDS011;44322;52.968;5.816;2023-04-01T19:15:48;13.50;;;7.40;;
58528;SDS011;44322;52.968;5.816;2023-04-01T19:18:39;11.70;;;8.57;;
58528;SDS011;44322;52.968;5.816;2023-04-01T19:21:45;11.90;;;7.30;;
58528;SDS011;44322;52.968;5.816;2023-04-01T19:24:16;15.13;;;8.52;;
58528;SDS011;44322;52.968;5.816;2023-04-01T19:27:00;12.63;;;7.60;;
58528;SDS011;44322;52.968;5.816;2023-04-01T19:32:25;11.05;;;8.30;;
58528;SDS011;44322;52.968;5.816;2023-04-01T19:35:10;14.35;;;8.45;;
58528;SDS011;44322;52.968;5.816;2023-04-01T19:45:51;13.88;;;8.48;;
58528;SDS011;44322;52.968;5.816;2023-04-01T19:51:23;13.35;;;8.30;;
58528;SDS011;44322;52.968;5.816;2023-04-01T19:59:23;12.50;;;7.70;;
58528;SDS011;44322;52.968;5.816;2023-04-01T20:02:01;13.40;;;7.93;;
58528;SDS011;44322;52.968;5.816;2023-04-01T20:04:50;14.88;;;8.05;;
58528;SDS011;44322;52.968;5.816;2023-04-01T20:07:37;16.30;;;8.43;;
58528;SDS011;44322;52.968;5.816;2023-04-01T20:10:14;14.10;;;8.10;;
58528;SDS011;44322;52.968;5.816;2023-04-01T20:20:40;15.57;;;8.10;;
58528;SDS011;44322;52.968;5.816;2023-04-01T20:26:53;14.65;;;8.18;;
58528;SDS011;44322;52.968;5.816;2023-04-01T20:29:36;13.20;;;7.90;;
58528;SDS011;44322;52.968;5.816;2023-04-01T20:32:12;13.02;;;8.95;;
58528;SDS011;44322;52.968;5.816;2023-04-01T20:37:40;14.68;;;8.30;;
58528;SDS011;44322;52.968;5.816;2023-04-01T20:43:14;13.40;;;7.93;;
58528;SDS011;44322;52.968;5.816;2023-04-01T20:45:55;14.18;;;8.65;;
58528;SDS011;44322;52.968;5.816;2023-04-01T20:50:59;15.43;;;8.75;;
58528;SDS011;44322;52.968;5.816;2023-04-01T20:53:41;14.30;;;8.25;;
58528;SDS011;44322;52.968;5.816;2023-04-01T21:07:06;15.63;;;7.78;;
58528;SDS011;44322;52.968;5.816;2023-04-01T21:18:00;11.98;;;7.53;;
58528;SDS011;44322;52.968;5.816;2023-04-01T21:23:11;12.48;;;7.68;;
58528;SDS011;44322;52.968;5.816;2023-04-01T21:26:04;11.73;;;7.30;;
58528;SDS011;44322;52.968;5.816;2023-04-01T21:29:08;13.18;;;7.28;;
58528;SDS011;44322;52.968;5.816;2023-04-01T21:56:17;14.95;;;6.72;;
58528;SDS011;44322;52.968;5.816;2023-04-01T22:01:36;11.90;;;6.18;;
58528;SDS011;44322;52.968;5.816;2023-04-01T22:04:11;13.82;;;6.25;;
58528;SDS011;44322;52.968;5.816;2023-04-01T22:06:56;10.77;;;6.07;;
58528;SDS011;44322;52.968;5.816;2023-04-01T22:12:35;9.75;;;5.80;;
58528;SDS011;44322;52.968;5.816;2023-04-01T22:17:59;12.43;;;6.03;;
58528;SDS011;44322;52.968;5.816;2023-04-01T22:20:36;11.93;;;5.90;;
58528;SDS011;44322;52.968;5.816;2023-04-01T22:26:00;12.30;;;6.20;;
58528;SDS011;44322;52.968;5.816;2023-04-01T22:31:09;10.60;;;6.60;;
58528;SDS011;44322;52.968;5.816;2023-04-01T22:41:26;11.77;;;6.13;;
58528;SDS011;44322;52.968;5.816;2023-04-01T22:44:02;9.25;;;5.53;;
58528;SDS011;44322;52.968;5.816;2023-04-01T22:49:18;9.55;;;5.30;;
58528;SDS011;44322;52.968;5.816;2023-04-01T22:51:49;13.35;;;6.03;;
58528;SDS011;44322;52.968;5.816;2023-04-01T22:56:53;8.80;;;5.80;;
58528;SDS011;44322;52.968;5.816;2023-04-01T22:59:24;10.80;;;6.22;;
58528;SDS011;44322;52.968;5.816;2023-04-01T23:02:18;10.70;;;6.05;;
58528;SDS011;44322;52.968;5.816;2023-04-01T23:04:45;7.93;;;5.60;;
58528;SDS011;44322;52.968;5.816;2023-04-01T23:07:35;9.00;;;6.00;;
58528;SDS011;44322;52.968;5.816;2023-04-01T23:12:58;9.48;;;5.90;;
58528;SDS011;44322;52.968;5.816;2023-04-01T23:15:26;11.20;;;6.25;;
58528;SDS011;44322;52.968;5.816;2023-04-01T23:18:02;9.68;;;5.53;;
58528;SDS011;44322;52.968;5.816;2023-04-01T23:21:10;12.63;;;5.90;;
58528;SDS011;44322;52.968;5.816;2023-04-01T23:31:40;10.35;;;6.28;;
58528;SDS011;44322;52.968;5.816;2023-04-01T23:36:41;12.77;;;6.13;;
58528;SDS011;44322;52.968;5.816;2023-04-01T23:39:30;8.85;;;5.93;;
58528;SDS011;44322;52.968;5.816;2023-04-01T23:44:57;8.98;;;5.45;;
58528;SDS011;44322;52.968;5.816;2023-04-01T23:47:24;12.40;;;5.78;;
58528;SDS011;44322;52.968;5.816;2023-04-01T23:49:54;9.52;;;5.53;;
58528;SDS011;44322;52.968;5.816;2023-04-01T23:52:26;11.45;;;5.80;;
58528;SDS011;44322;52.968;5.816;2023-04-01T23:54:58;9.85;;;4.75;;
58528;SDS011;44322;52.968;5.816;2023-04-01T23:57:29;11.80;;;5.43;;
